sensor_id;sensor_type;location;lat;lon;timestamp;P1;durP1;ratioP1;P2;durP2;ratioP2
55815;SDS011;41744;52.404;16.942;2023-04-15T00:01:41;12.27;;;6.20;;
55815;SDS011;41744;52.404;16.942;2023-04-15T00:04:07;12.07;;;5.77;;
55815;SDS011;41744;52.404;16.942;2023-04-15T00:06:33;11.07;;;6.00;;
55815;SDS011;41744;52.404;16.942;2023-04-15T00:08:59;11.97;;;6.03;;
55815;SDS011;41744;52.404;16.942;2023-04-15T00:11:25;10.13;;;5.90;;
55815;SDS011;41744;52.404;16.942;2023-04-15T00:13:51;9.83;;;5.30;;
55815;SDS011;41744;52.404;16.942;2023-04-15T00:16:17;11.10;;;5.83;;
55815;SDS011;41744;52.404;16.942;2023-04-15T00:18:43;15.50;;;6.10;;
55815;SDS011;41744;52.404;16.942;2023-04-15T00:21:09;11.77;;;6.00;;
55815;SDS011;41744;52.404;16.942;2023-04-15T00:23:35;9.23;;;5.20;;
55815;SDS011;41744;52.404;16.942;2023-04-15T00:26:01;11.67;;;6.10;;
55815;SDS011;41744;52.404;16.942;2023-04-15T00:28:27;11.20;;;5.83;;
55815;SDS011;41744;52.404;16.942;2023-04-15T00:30:55;12.90;;;5.67;;
55815;SDS011;41744;52.404;16.942;2023-04-15T00:33:21;10.60;;;5.40;;
55815;SDS011;41744;52.404;16.942;2023-04-15T00:35:47;15.37;;;6.10;;
55815;SDS011;41744;52.404;16.942;2023-04-15T00:38:13;9.73;;;5.60;;
55815;SDS011;41744;52.404;16.942;2023-04-15T00:40:39;8.77;;;5.73;;
55815;SDS011;41744;52.404;16.942;2023-04-15T00:43:06;13.87;;;5.90;;
55815;SDS011;41744;52.404;16.942;2023-04-15T00:45:32;9.60;;;5.37;;
55815;SDS011;41744;52.404;16.942;2023-04-15T00:47:58;17.47;;;6.83;;
55815;SDS011;41744;52.404;16.942;2023-04-15T00:50:24;11.93;;;5.53;;
55815;SDS011;41744;52.404;16.942;2023-04-15T00:52:50;10.73;;;6.10;;
55815;SDS011;41744;52.404;16.942;2023-04-15T00:55:16;13.63;;;6.00;;
55815;SDS011;41744;52.404;16.942;2023-04-15T00:57:43;16.80;;;6.07;;
55815;SDS011;41744;52.404;16.942;2023-04-15T01:00:09;9.93;;;5.70;;
55815;SDS011;41744;52.404;16.942;2023-04-15T01:02:36;13.63;;;6.57;;
55815;SDS011;41744;52.404;16.942;2023-04-15T01:05:03;12.17;;;6.33;;
55815;SDS011;41744;52.404;16.942;2023-04-15T01:07:29;12.93;;;5.93;;
55815;SDS011;41744;52.404;16.942;2023-04-15T01:09:56;9.07;;;5.30;;
55815;SDS011;41744;52.404;16.942;2023-04-15T01:12:22;12.77;;;6.10;;
55815;SDS011;41744;52.404;16.942;2023-04-15T01:14:49;15.40;;;6.17;;
55815;SDS011;41744;52.404;16.942;2023-04-15T01:17:15;11.80;;;6.30;;
55815;SDS011;41744;52.404;16.942;2023-04-15T01:19:41;12.97;;;5.80;;
55815;SDS011;41744;52.404;16.942;2023-04-15T01:22:07;11.97;;;5.80;;
55815;SDS011;41744;52.404;16.942;2023-04-15T01:24:34;14.17;;;5.63;;
55815;SDS011;41744;52.404;16.942;2023-04-15T01:27:00;14.53;;;6.57;;
55815;SDS011;41744;52.404;16.942;2023-04-15T01:29:27;16.83;;;6.40;;
55815;SDS011;41744;52.404;16.942;2023-04-15T01:31:54;13.50;;;5.77;;
55815;SDS011;41744;52.404;16.942;2023-04-15T01:34:20;11.83;;;6.30;;
55815;SDS011;41744;52.404;16.942;2023-04-15T01:36:46;10.50;;;6.17;;
55815;SDS011;41744;52.404;16.942;2023-04-15T01:39:13;12.43;;;6.20;;
55815;SDS011;41744;52.404;16.942;2023-04-15T01:41:39;10.60;;;5.93;;
55815;SDS011;41744;52.404;16.942;2023-04-15T01:44:06;11.20;;;5.70;;
55815;SDS011;41744;52.404;16.942;2023-04-15T01:46:32;10.63;;;5.80;;
55815;SDS011;41744;52.404;16.942;2023-04-15T01:48:58;10.93;;;5.77;;
55815;SDS011;41744;52.404;16.942;2023-04-15T01:51:24;12.93;;;6.03;;
55815;SDS011;41744;52.404;16.942;2023-04-15T01:53:51;14.77;;;5.77;;
55815;SDS011;41744;52.404;16.942;2023-04-15T01:56:17;11.33;;;5.60;;
55815;SDS011;41744;52.404;16.942;2023-04-15T01:58:43;13.63;;;5.47;;
55815;SDS011;41744;52.404;16.942;2023-04-15T02:01:09;12.73;;;5.83;;
55815;SDS011;41744;52.404;16.942;2023-04-15T02:03:36;12.97;;;5.63;;
55815;SDS011;41744;52.404;16.942;2023-04-15T02:06:03;13.77;;;6.43;;
55815;SDS011;41744;52.404;16.942;2023-04-15T02:08:30;9.90;;;5.37;;
55815;SDS011;41744;52.404;16.942;2023-04-15T02:10:56;14.30;;;6.13;;
55815;SDS011;41744;52.404;16.942;2023-04-15T02:13:22;11.10;;;6.17;;
55815;SDS011;41744;52.404;16.942;2023-04-15T02:15:48;11.77;;;6.27;;
55815;SDS011;41744;52.404;16.942;2023-04-15T02:18:16;10.90;;;5.70;;
55815;SDS011;41744;52.404;16.942;2023-04-15T02:20:42;13.60;;;6.20;;
55815;SDS011;41744;52.404;16.942;2023-04-15T02:23:08;9.87;;;5.57;;
55815;SDS011;41744;52.404;16.942;2023-04-15T02:25:35;10.23;;;5.57;;
55815;SDS011;41744;52.404;16.942;2023-04-15T02:28:02;10.63;;;5.90;;
55815;SDS011;41744;52.404;16.942;2023-04-15T02:30:28;13.10;;;5.93;;
55815;SDS011;41744;52.404;16.942;2023-04-15T02:32:54;15.17;;;5.73;;
55815;SDS011;41744;52.404;16.942;2023-04-15T02:35:20;12.80;;;6.40;;
55815;SDS011;41744;52.404;16.942;2023-04-15T02:37:49;14.17;;;6.47;;
55815;SDS011;41744;52.404;16.942;2023-04-15T02:40:15;12.53;;;6.23;;
55815;SDS011;41744;52.404;16.942;2023-04-15T02:42:41;13.40;;;6.00;;
55815;SDS011;41744;52.404;16.942;2023-04-15T02:45:08;14.10;;;6.37;;
55815;SDS011;41744;52.404;16.942;2023-04-15T02:47:36;12.60;;;6.17;;
55815;SDS011;41744;52.404;16.942;2023-04-15T02:50:05;11.97;;;6.37;;
55815;SDS011;41744;52.404;16.942;2023-04-15T02:52:33;11.83;;;6.17;;
55815;SDS011;41744;52.404;16.942;2023-04-15T02:54:59;11.70;;;6.40;;
55815;SDS011;41744;52.404;16.942;2023-04-15T02:57:26;12.40;;;6.53;;
55815;SDS011;41744;52.404;16.942;2023-04-15T02:59:53;13.37;;;6.37;;
55815;SDS011;41744;52.404;16.942;2023-04-15T03:02:19;13.70;;;6.13;;
55815;SDS011;41744;52.404;16.942;2023-04-15T03:04:45;12.23;;;6.23;;
55815;SDS011;41744;52.404;16.942;2023-04-15T03:07:11;11.87;;;6.13;;
55815;SDS011;41744;52.404;16.942;2023-04-15T03:09:37;12.47;;;6.53;;
55815;SDS011;41744;52.404;16.942;2023-04-15T03:12:05;13.63;;;6.20;;
55815;SDS011;41744;52.404;16.942;2023-04-15T03:14:31;13.70;;;6.50;;
55815;SDS011;41744;52.404;16.942;2023-04-15T03:16:57;13.87;;;6.63;;
55815;SDS011;41744;52.404;16.942;2023-04-15T03:19:23;14.50;;;7.07;;
55815;SDS011;41744;52.404;16.942;2023-04-15T03:21:49;15.03;;;6.67;;
55815;SDS011;41744;52.404;16.942;2023-04-15T03:24:16;12.30;;;6.80;;
55815;SDS011;41744;52.404;16.942;2023-04-15T03:26:42;13.67;;;6.40;;
55815;SDS011;41744;52.404;16.942;2023-04-15T03:29:08;15.50;;;6.80;;
55815;SDS011;41744;52.404;16.942;2023-04-15T03:31:34;12.57;;;7.13;;
55815;SDS011;41744;52.404;16.942;2023-04-15T03:34:00;14.20;;;6.83;;
55815;SDS011;41744;52.404;16.942;2023-04-15T03:36:27;14.83;;;7.40;;
55815;SDS011;41744;52.404;16.942;2023-04-15T03:38:56;12.60;;;7.07;;
55815;SDS011;41744;52.404;16.942;2023-04-15T03:41:22;13.97;;;7.20;;
55815;SDS011;41744;52.404;16.942;2023-04-15T03:43:48;13.73;;;7.37;;
55815;SDS011;41744;52.404;16.942;2023-04-15T03:46:16;14.47;;;7.43;;
55815;SDS011;41744;52.404;16.942;2023-04-15T03:48:42;15.93;;;7.83;;
55815;SDS011;41744;52.404;16.942;2023-04-15T03:51:08;15.40;;;8.00;;
55815;SDS011;41744;52.404;16.942;2023-04-15T03:53:34;15.73;;;8.07;;
55815;SDS011;41744;52.404;16.942;2023-04-15T03:56:00;15.47;;;8.30;;
55815;SDS011;41744;52.404;16.942;2023-04-15T03:58:27;16.43;;;8.83;;
55815;SDS011;41744;52.404;16.942;2023-04-15T04:00:53;18.10;;;9.57;;
55815;SDS011;41744;52.404;16.942;2023-04-15T04:03:19;16.53;;;8.33;;
55815;SDS011;41744;52.404;16.942;2023-04-15T04:05:45;15.23;;;8.07;;
55815;SDS011;41744;52.404;16.942;2023-04-15T04:08:11;17.03;;;9.43;;
55815;SDS011;41744;52.404;16.942;2023-04-15T04:10:40;20.70;;;9.60;;
55815;SDS011;41744;52.404;16.942;2023-04-15T04:13:06;18.23;;;9.10;;
55815;SDS011;41744;52.404;16.942;2023-04-15T04:15:32;18.27;;;9.87;;
55815;SDS011;41744;52.404;16.942;2023-04-15T04:17:59;18.87;;;9.77;;
55815;SDS011;41744;52.404;16.942;2023-04-15T04:20:25;16.43;;;8.87;;
55815;SDS011;41744;52.404;16.942;2023-04-15T04:22:51;18.03;;;9.27;;
55815;SDS011;41744;52.404;16.942;2023-04-15T04:25:17;20.30;;;10.07;;
55815;SDS011;41744;52.404;16.942;2023-04-15T04:27:43;18.77;;;9.47;;
55815;SDS011;41744;52.404;16.942;2023-04-15T04:30:09;17.13;;;9.53;;
55815;SDS011;41744;52.404;16.942;2023-04-15T04:32:35;18.50;;;9.50;;
55815;SDS011;41744;52.404;16.942;2023-04-15T04:35:02;19.43;;;10.43;;
55815;SDS011;41744;52.404;16.942;2023-04-15T04:37:28;18.27;;;10.13;;
55815;SDS011;41744;52.404;16.942;2023-04-15T04:39:54;19.30;;;9.60;;
55815;SDS011;41744;52.404;16.942;2023-04-15T04:42:21;19.23;;;10.10;;
55815;SDS011;41744;52.404;16.942;2023-04-15T04:44:47;19.33;;;10.33;;
55815;SDS011;41744;52.404;16.942;2023-04-15T04:47:13;18.67;;;10.07;;
55815;SDS011;41744;52.404;16.942;2023-04-15T04:49:39;17.17;;;9.87;;
55815;SDS011;41744;52.404;16.942;2023-04-15T04:52:05;17.13;;;9.70;;
55815;SDS011;41744;52.404;16.942;2023-04-15T04:54:32;18.97;;;9.60;;
55815;SDS011;41744;52.404;16.942;2023-04-15T04:56:58;20.43;;;10.87;;
55815;SDS011;41744;52.404;16.942;2023-04-15T04:59:24;16.27;;;9.83;;
55815;SDS011;41744;52.404;16.942;2023-04-15T05:01:50;20.60;;;10.23;;
55815;SDS011;41744;52.404;16.942;2023-04-15T05:04:17;19.23;;;10.13;;
55815;SDS011;41744;52.404;16.942;2023-04-15T05:06:43;17.00;;;9.50;;
55815;SDS011;41744;52.404;16.942;2023-04-15T05:09:09;19.60;;;10.03;;
55815;SDS011;41744;52.404;16.942;2023-04-15T05:11:35;18.10;;;10.10;;
55815;SDS011;41744;52.404;16.942;2023-04-15T05:14:01;17.30;;;9.67;;
55815;SDS011;41744;52.404;16.942;2023-04-15T05:16:27;20.13;;;10.70;;
55815;SDS011;41744;52.404;16.942;2023-04-15T05:18:53;18.20;;;9.40;;
55815;SDS011;41744;52.404;16.942;2023-04-15T05:21:19;20.37;;;10.40;;
55815;SDS011;41744;52.404;16.942;2023-04-15T05:23:45;19.67;;;9.93;;
55815;SDS011;41744;52.404;16.942;2023-04-15T05:26:11;19.60;;;10.53;;
55815;SDS011;41744;52.404;16.942;2023-04-15T05:28:37;20.77;;;10.87;;
55815;SDS011;41744;52.404;16.942;2023-04-15T05:31:03;18.60;;;10.97;;
55815;SDS011;41744;52.404;16.942;2023-04-15T05:33:30;19.53;;;10.57;;
55815;SDS011;41744;52.404;16.942;2023-04-15T05:35:56;18.93;;;10.10;;
55815;SDS011;41744;52.404;16.942;2023-04-15T05:38:22;20.67;;;10.83;;
55815;SDS011;41744;52.404;16.942;2023-04-15T05:40:48;19.73;;;10.43;;
55815;SDS011;41744;52.404;16.942;2023-04-15T05:43:14;21.97;;;11.10;;
55815;SDS011;41744;52.404;16.942;2023-04-15T05:45:40;19.23;;;9.93;;
55815;SDS011;41744;52.404;16.942;2023-04-15T05:48:06;17.90;;;10.27;;
55815;SDS011;41744;52.404;16.942;2023-04-15T05:50:32;19.13;;;10.40;;
55815;SDS011;41744;52.404;16.942;2023-04-15T05:52:58;20.13;;;10.77;;
55815;SDS011;41744;52.404;16.942;2023-04-15T05:55:24;18.97;;;10.50;;
55815;SDS011;41744;52.404;16.942;2023-04-15T05:57:51;18.60;;;10.63;;
55815;SDS011;41744;52.404;16.942;2023-04-15T06:00:17;20.60;;;10.57;;
55815;SDS011;41744;52.404;16.942;2023-04-15T06:02:44;19.83;;;10.53;;
55815;SDS011;41744;52.404;16.942;2023-04-15T06:05:10;23.20;;;10.17;;
55815;SDS011;41744;52.404;16.942;2023-04-15T06:07:36;22.53;;;10.97;;
55815;SDS011;41744;52.404;16.942;2023-04-15T06:10:03;23.80;;;10.67;;
55815;SDS011;41744;52.404;16.942;2023-04-15T06:12:29;21.67;;;10.50;;
55815;SDS011;41744;52.404;16.942;2023-04-15T06:14:56;22.77;;;10.93;;
55815;SDS011;41744;52.404;16.942;2023-04-15T06:17:22;19.90;;;10.30;;
55815;SDS011;41744;52.404;16.942;2023-04-15T06:19:50;19.70;;;10.00;;
55815;SDS011;41744;52.404;16.942;2023-04-15T06:22:20;19.33;;;9.60;;
55815;SDS011;41744;52.404;16.942;2023-04-15T06:24:47;22.40;;;10.73;;
55815;SDS011;41744;52.404;16.942;2023-04-15T06:27:14;20.60;;;9.73;;
55815;SDS011;41744;52.404;16.942;2023-04-15T06:29:40;19.50;;;10.07;;
55815;SDS011;41744;52.404;16.942;2023-04-15T06:32:07;18.27;;;9.87;;
55815;SDS011;41744;52.404;16.942;2023-04-15T06:34:33;17.73;;;9.60;;
55815;SDS011;41744;52.404;16.942;2023-04-15T06:36:59;17.10;;;9.53;;
55815;SDS011;41744;52.404;16.942;2023-04-15T06:39:25;16.93;;;8.60;;
55815;SDS011;41744;52.404;16.942;2023-04-15T06:41:51;15.83;;;8.50;;
55815;SDS011;41744;52.404;16.942;2023-04-15T06:44:18;16.43;;;8.93;;
55815;SDS011;41744;52.404;16.942;2023-04-15T06:46:44;18.43;;;8.83;;
55815;SDS011;41744;52.404;16.942;2023-04-15T06:49:10;16.77;;;9.13;;
55815;SDS011;41744;52.404;16.942;2023-04-15T06:51:36;16.57;;;8.60;;
55815;SDS011;41744;52.404;16.942;2023-04-15T06:54:02;16.67;;;9.43;;
55815;SDS011;41744;52.404;16.942;2023-04-15T06:56:30;15.53;;;8.53;;
55815;SDS011;41744;52.404;16.942;2023-04-15T06:58:56;16.17;;;8.00;;
55815;SDS011;41744;52.404;16.942;2023-04-15T07:01:22;16.77;;;8.40;;
55815;SDS011;41744;52.404;16.942;2023-04-15T07:03:48;17.03;;;8.80;;
55815;SDS011;41744;52.404;16.942;2023-04-15T07:06:14;16.57;;;8.20;;
55815;SDS011;41744;52.404;16.942;2023-04-15T07:08:41;16.97;;;8.57;;
55815;SDS011;41744;52.404;16.942;2023-04-15T07:11:07;15.13;;;8.23;;
55815;SDS011;41744;52.404;16.942;2023-04-15T07:13:33;15.37;;;8.50;;
55815;SDS011;41744;52.404;16.942;2023-04-15T07:15:59;19.67;;;8.83;;
55815;SDS011;41744;52.404;16.942;2023-04-15T07:18:25;15.73;;;8.33;;
55815;SDS011;41744;52.404;16.942;2023-04-15T07:20:51;15.43;;;8.20;;
55815;SDS011;41744;52.404;16.942;2023-04-15T07:23:17;15.37;;;8.67;;
55815;SDS011;41744;52.404;16.942;2023-04-15T07:25:43;17.50;;;8.47;;
55815;SDS011;41744;52.404;16.942;2023-04-15T07:28:09;14.07;;;8.30;;
55815;SDS011;41744;52.404;16.942;2023-04-15T07:30:35;16.87;;;8.33;;
55815;SDS011;41744;52.404;16.942;2023-04-15T07:33:01;17.30;;;9.07;;
55815;SDS011;41744;52.404;16.942;2023-04-15T07:35:27;17.10;;;8.83;;
55815;SDS011;41744;52.404;16.942;2023-04-15T07:37:53;15.00;;;8.33;;
55815;SDS011;41744;52.404;16.942;2023-04-15T07:40:20;16.10;;;8.87;;
55815;SDS011;41744;52.404;16.942;2023-04-15T07:42:46;13.10;;;7.80;;
55815;SDS011;41744;52.404;16.942;2023-04-15T07:45:13;14.90;;;8.83;;
55815;SDS011;41744;52.404;16.942;2023-04-15T07:47:39;19.10;;;8.90;;
55815;SDS011;41744;52.404;16.942;2023-04-15T07:50:06;15.27;;;9.27;;
55815;SDS011;41744;52.404;16.942;2023-04-15T07:52:33;16.33;;;9.67;;
55815;SDS011;41744;52.404;16.942;2023-04-15T07:55:03;16.60;;;8.97;;
55815;SDS011;41744;52.404;16.942;2023-04-15T07:57:31;15.93;;;8.97;;
55815;SDS011;41744;52.404;16.942;2023-04-15T07:59:57;15.40;;;8.80;;
55815;SDS011;41744;52.404;16.942;2023-04-15T08:02:23;16.20;;;9.00;;
55815;SDS011;41744;52.404;16.942;2023-04-15T08:04:49;17.63;;;9.10;;
55815;SDS011;41744;52.404;16.942;2023-04-15T08:07:15;18.03;;;9.57;;
55815;SDS011;41744;52.404;16.942;2023-04-15T08:09:42;15.20;;;8.80;;
55815;SDS011;41744;52.404;16.942;2023-04-15T08:12:08;15.63;;;8.50;;
55815;SDS011;41744;52.404;16.942;2023-04-15T08:14:37;13.30;;;8.33;;
55815;SDS011;41744;52.404;16.942;2023-04-15T08:17:03;13.73;;;8.63;;
55815;SDS011;41744;52.404;16.942;2023-04-15T08:19:29;15.30;;;8.83;;
55815;SDS011;41744;52.404;16.942;2023-04-15T08:21:55;16.07;;;8.93;;
55815;SDS011;41744;52.404;16.942;2023-04-15T08:24:22;15.37;;;8.90;;
55815;SDS011;41744;52.404;16.942;2023-04-15T08:26:48;18.37;;;9.67;;
55815;SDS011;41744;52.404;16.942;2023-04-15T08:29:14;14.13;;;9.20;;
55815;SDS011;41744;52.404;16.942;2023-04-15T08:31:40;17.43;;;9.47;;
55815;SDS011;41744;52.404;16.942;2023-04-15T08:34:06;14.53;;;8.17;;
55815;SDS011;41744;52.404;16.942;2023-04-15T08:36:33;15.63;;;8.57;;
55815;SDS011;41744;52.404;16.942;2023-04-15T08:38:59;15.17;;;8.57;;
55815;SDS011;41744;52.404;16.942;2023-04-15T08:41:26;15.57;;;9.30;;
55815;SDS011;41744;52.404;16.942;2023-04-15T08:43:56;18.13;;;10.00;;
55815;SDS011;41744;52.404;16.942;2023-04-15T08:46:22;18.03;;;10.20;;
55815;SDS011;41744;52.404;16.942;2023-04-15T08:48:48;17.40;;;10.13;;
55815;SDS011;41744;52.404;16.942;2023-04-15T08:51:18;18.03;;;9.30;;
55815;SDS011;41744;52.404;16.942;2023-04-15T08:53:44;19.87;;;10.30;;
55815;SDS011;41744;52.404;16.942;2023-04-15T08:56:11;18.73;;;10.03;;
55815;SDS011;41744;52.404;16.942;2023-04-15T08:58:39;16.87;;;9.83;;
55815;SDS011;41744;52.404;16.942;2023-04-15T09:01:06;21.23;;;9.70;;
55815;SDS011;41744;52.404;16.942;2023-04-15T09:03:32;18.33;;;10.27;;
55815;SDS011;41744;52.404;16.942;2023-04-15T09:05:58;19.00;;;10.40;;
55815;SDS011;41744;52.404;16.942;2023-04-15T09:08:25;20.60;;;11.03;;
55815;SDS011;41744;52.404;16.942;2023-04-15T09:10:52;19.63;;;10.23;;
55815;SDS011;41744;52.404;16.942;2023-04-15T09:13:18;17.37;;;10.40;;
55815;SDS011;41744;52.404;16.942;2023-04-15T09:15:45;18.43;;;10.33;;
55815;SDS011;41744;52.404;16.942;2023-04-15T09:18:11;19.27;;;10.97;;
55815;SDS011;41744;52.404;16.942;2023-04-15T09:20:40;16.77;;;9.90;;
55815;SDS011;41744;52.404;16.942;2023-04-15T09:23:13;17.73;;;10.07;;
55815;SDS011;41744;52.404;16.942;2023-04-15T09:25:39;18.13;;;10.67;;
55815;SDS011;41744;52.404;16.942;2023-04-15T09:28:09;19.03;;;10.60;;
55815;SDS011;41744;52.404;16.942;2023-04-15T09:30:35;17.00;;;10.03;;
55815;SDS011;41744;52.404;16.942;2023-04-15T09:33:02;16.93;;;9.93;;
55815;SDS011;41744;52.404;16.942;2023-04-15T09:35:32;16.07;;;9.70;;
55815;SDS011;41744;52.404;16.942;2023-04-15T09:38:01;18.50;;;10.93;;
55815;SDS011;41744;52.404;16.942;2023-04-15T09:40:31;17.13;;;10.20;;
55815;SDS011;41744;52.404;16.942;2023-04-15T09:43:00;15.13;;;9.50;;
55815;SDS011;41744;52.404;16.942;2023-04-15T09:45:26;19.93;;;10.23;;
55815;SDS011;41744;52.404;16.942;2023-04-15T09:47:52;19.57;;;10.37;;
55815;SDS011;41744;52.404;16.942;2023-04-15T09:50:19;20.07;;;11.10;;
55815;SDS011;41744;52.404;16.942;2023-04-15T09:52:46;17.83;;;10.67;;
55815;SDS011;41744;52.404;16.942;2023-04-15T09:55:13;17.57;;;9.97;;
55815;SDS011;41744;52.404;16.942;2023-04-15T09:57:39;18.37;;;10.23;;
55815;SDS011;41744;52.404;16.942;2023-04-15T10:00:07;19.13;;;10.33;;
55815;SDS011;41744;52.404;16.942;2023-04-15T10:02:35;9.30;;;5.30;;
55815;SDS011;41744;52.404;16.942;2023-04-15T10:05:01;2.40;;;1.73;;
55815;SDS011;41744;52.404;16.942;2023-04-15T10:07:27;2.10;;;1.63;;
55815;SDS011;41744;52.404;16.942;2023-04-15T10:09:54;2.80;;;1.70;;
55815;SDS011;41744;52.404;16.942;2023-04-15T10:12:21;3.87;;;2.10;;
55815;SDS011;41744;52.404;16.942;2023-04-15T10:14:47;2.40;;;1.80;;
55815;SDS011;41744;52.404;16.942;2023-04-15T10:17:16;3.43;;;2.00;;
55815;SDS011;41744;52.404;16.942;2023-04-15T10:19:43;3.10;;;1.97;;
55815;SDS011;41744;52.404;16.942;2023-04-15T10:22:09;3.50;;;2.00;;
55815;SDS011;41744;52.404;16.942;2023-04-15T10:24:35;3.83;;;2.05;;
55815;SDS011;41744;52.404;16.942;2023-04-15T10:27:03;3.13;;;2.00;;
55815;SDS011;41744;52.404;16.942;2023-04-15T10:29:30;3.13;;;2.00;;
55815;SDS011;41744;52.404;16.942;2023-04-15T10:31:57;3.30;;;1.90;;
55815;SDS011;41744;52.404;16.942;2023-04-15T10:34:24;4.57;;;2.13;;
55815;SDS011;41744;52.404;16.942;2023-04-15T10:36:50;4.33;;;2.20;;
55815;SDS011;41744;52.404;16.942;2023-04-15T10:39:37;4.33;;;2.00;;
55815;SDS011;41744;52.404;16.942;2023-04-15T10:42:07;3.47;;;2.20;;
55815;SDS011;41744;52.404;16.942;2023-04-15T10:44:37;2.47;;;2.00;;
55815;SDS011;41744;52.404;16.942;2023-04-15T10:47:10;3.90;;;2.20;;
55815;SDS011;41744;52.404;16.942;2023-04-15T10:49:41;3.87;;;2.30;;
55815;SDS011;41744;52.404;16.942;2023-04-15T10:52:09;4.80;;;2.53;;
55815;SDS011;41744;52.404;16.942;2023-04-15T10:54:35;3.00;;;2.40;;
55815;SDS011;41744;52.404;16.942;2023-04-15T10:59:36;4.45;;;2.72;;
55815;SDS011;41744;52.404;16.942;2023-04-15T11:02:04;6.85;;;3.00;;
55815;SDS011;41744;52.404;16.942;2023-04-15T11:07:31;6.13;;;3.33;;
55815;SDS011;41744;52.404;16.942;2023-04-15T11:09:58;5.43;;;3.53;;
55815;SDS011;41744;52.404;16.942;2023-04-15T11:12:32;6.15;;;3.47;;
55815;SDS011;41744;52.404;16.942;2023-04-15T11:14:59;6.20;;;3.03;;
55815;SDS011;41744;52.404;16.942;2023-04-15T11:17:46;6.17;;;3.23;;
55815;SDS011;41744;52.404;16.942;2023-04-15T11:20:15;6.22;;;3.40;;
55815;SDS011;41744;52.404;16.942;2023-04-15T11:22:51;5.20;;;3.33;;
55815;SDS011;41744;52.404;16.942;2023-04-15T11:25:24;6.17;;;3.50;;
55815;SDS011;41744;52.404;16.942;2023-04-15T11:27:51;4.23;;;2.80;;
55815;SDS011;41744;52.404;16.942;2023-04-15T11:30:19;6.77;;;3.20;;
55815;SDS011;41744;52.404;16.942;2023-04-15T11:32:49;3.70;;;2.50;;
55815;SDS011;41744;52.404;16.942;2023-04-15T11:35:15;3.80;;;2.70;;
55815;SDS011;41744;52.404;16.942;2023-04-15T11:37:42;4.03;;;2.23;;
55815;SDS011;41744;52.404;16.942;2023-04-15T11:40:09;2.13;;;1.50;;
55815;SDS011;41744;52.404;16.942;2023-04-15T11:42:35;3.00;;;2.00;;
55815;SDS011;41744;52.404;16.942;2023-04-15T11:45:11;3.50;;;2.10;;
55815;SDS011;41744;52.404;16.942;2023-04-15T11:47:38;4.78;;;2.20;;
55815;SDS011;41744;52.404;16.942;2023-04-15T11:50:17;3.80;;;2.00;;
55815;SDS011;41744;52.404;16.942;2023-04-15T11:52:56;3.90;;;2.30;;
55815;SDS011;41744;52.404;16.942;2023-04-15T11:55:23;3.13;;;2.00;;
55815;SDS011;41744;52.404;16.942;2023-04-15T11:57:49;3.47;;;2.13;;
55815;SDS011;41744;52.404;16.942;2023-04-15T12:00:15;4.93;;;2.57;;
55815;SDS011;41744;52.404;16.942;2023-04-15T12:02:42;4.93;;;2.77;;
55815;SDS011;41744;52.404;16.942;2023-04-15T12:05:08;4.72;;;2.83;;
55815;SDS011;41744;52.404;16.942;2023-04-15T12:10:23;5.10;;;2.60;;
55815;SDS011;41744;52.404;16.942;2023-04-15T12:12:51;5.13;;;3.17;;
55815;SDS011;41744;52.404;16.942;2023-04-15T12:15:20;7.87;;;3.10;;
55815;SDS011;41744;52.404;16.942;2023-04-15T12:17:46;9.50;;;3.13;;
55815;SDS011;41744;52.404;16.942;2023-04-15T12:20:12;4.63;;;2.80;;
55815;SDS011;41744;52.404;16.942;2023-04-15T12:22:38;7.82;;;3.05;;
55815;SDS011;41744;52.404;16.942;2023-04-15T12:25:05;5.43;;;3.33;;
55815;SDS011;41744;52.404;16.942;2023-04-15T12:27:31;6.20;;;3.40;;
55815;SDS011;41744;52.404;16.942;2023-04-15T12:30:05;6.50;;;3.53;;
55815;SDS011;41744;52.404;16.942;2023-04-15T12:32:35;5.43;;;3.50;;
55815;SDS011;41744;52.404;16.942;2023-04-15T12:35:01;6.25;;;3.50;;
55815;SDS011;41744;52.404;16.942;2023-04-15T12:37:27;6.35;;;3.60;;
55815;SDS011;41744;52.404;16.942;2023-04-15T12:39:53;7.68;;;3.80;;
55815;SDS011;41744;52.404;16.942;2023-04-15T12:42:19;7.27;;;3.80;;
55815;SDS011;41744;52.404;16.942;2023-04-15T12:44:46;6.23;;;3.17;;
55815;SDS011;41744;52.404;16.942;2023-04-15T12:47:12;6.00;;;3.40;;
55815;SDS011;41744;52.404;16.942;2023-04-15T12:49:39;6.43;;;3.00;;
55815;SDS011;41744;52.404;16.942;2023-04-15T12:52:05;5.37;;;2.90;;
55815;SDS011;41744;52.404;16.942;2023-04-15T12:54:31;5.20;;;3.27;;
55815;SDS011;41744;52.404;16.942;2023-04-15T12:56:57;6.27;;;3.17;;
55815;SDS011;41744;52.404;16.942;2023-04-15T12:59:24;5.47;;;3.50;;
55815;SDS011;41744;52.404;16.942;2023-04-15T13:01:50;7.77;;;3.87;;
55815;SDS011;41744;52.404;16.942;2023-04-15T13:04:18;9.05;;;3.80;;
55815;SDS011;41744;52.404;16.942;2023-04-15T13:06:45;18.87;;;5.77;;
55815;SDS011;41744;52.404;16.942;2023-04-15T13:09:11;7.80;;;4.18;;
55815;SDS011;41744;52.404;16.942;2023-04-15T13:11:37;6.03;;;3.47;;
55815;SDS011;41744;52.404;16.942;2023-04-15T13:14:03;5.25;;;3.42;;
55815;SDS011;41744;52.404;16.942;2023-04-15T13:16:30;6.30;;;3.37;;
55815;SDS011;41744;52.404;16.942;2023-04-15T13:18:57;5.78;;;3.38;;
55815;SDS011;41744;52.404;16.942;2023-04-15T13:21:23;6.22;;;3.65;;
55815;SDS011;41744;52.404;16.942;2023-04-15T13:23:51;6.23;;;3.83;;
55815;SDS011;41744;52.404;16.942;2023-04-15T13:26:17;7.00;;;3.63;;
55815;SDS011;41744;52.404;16.942;2023-04-15T13:28:43;6.67;;;3.83;;
55815;SDS011;41744;52.404;16.942;2023-04-15T13:31:10;6.63;;;3.70;;
55815;SDS011;41744;52.404;16.942;2023-04-15T13:33:36;6.45;;;3.65;;
55815;SDS011;41744;52.404;16.942;2023-04-15T13:36:02;5.97;;;3.92;;
55815;SDS011;41744;52.404;16.942;2023-04-15T13:38:28;7.13;;;4.47;;
55815;SDS011;41744;52.404;16.942;2023-04-15T13:40:54;6.63;;;4.07;;
55815;SDS011;41744;52.404;16.942;2023-04-15T13:43:20;7.32;;;4.28;;
55815;SDS011;41744;52.404;16.942;2023-04-15T13:45:46;5.32;;;3.60;;
55815;SDS011;41744;52.404;16.942;2023-04-15T13:48:12;7.32;;;3.92;;
55815;SDS011;41744;52.404;16.942;2023-04-15T13:50:38;6.88;;;4.28;;
55815;SDS011;41744;52.404;16.942;2023-04-15T13:53:09;8.02;;;4.10;;
55815;SDS011;41744;52.404;16.942;2023-04-15T13:55:35;7.50;;;4.20;;
55815;SDS011;41744;52.404;16.942;2023-04-15T13:58:05;8.77;;;4.72;;
55815;SDS011;41744;52.404;16.942;2023-04-15T14:00:31;7.97;;;4.70;;
55815;SDS011;41744;52.404;16.942;2023-04-15T14:02:57;8.18;;;4.45;;
55815;SDS011;41744;52.404;16.942;2023-04-15T14:05:23;8.00;;;4.57;;
55815;SDS011;41744;52.404;16.942;2023-04-15T14:07:49;7.78;;;4.90;;
55815;SDS011;41744;52.404;16.942;2023-04-15T14:10:15;10.00;;;5.28;;
55815;SDS011;41744;52.404;16.942;2023-04-15T14:12:41;14.97;;;5.97;;
55815;SDS011;41744;52.404;16.942;2023-04-15T14:15:07;10.25;;;5.28;;
55815;SDS011;41744;52.404;16.942;2023-04-15T14:17:33;8.50;;;4.63;;
55815;SDS011;41744;52.404;16.942;2023-04-15T14:20:00;10.45;;;5.32;;
55815;SDS011;41744;52.404;16.942;2023-04-15T14:22:26;9.48;;;5.10;;
55815;SDS011;41744;52.404;16.942;2023-04-15T14:24:52;9.40;;;5.20;;
55815;SDS011;41744;52.404;16.942;2023-04-15T14:27:19;10.40;;;5.22;;
55815;SDS011;41744;52.404;16.942;2023-04-15T14:29:45;10.93;;;5.65;;